createdAt,value
2023-06-04T00:00:20.389Z,2.80
2023-06-04T00:02:48.165Z,3.90
2023-06-04T00:05:15.724Z,5.70
2023-06-04T00:07:43.062Z,4.90
2023-06-04T00:10:10.945Z,6.30
2023-06-04T00:12:38.274Z,4.60
2023-06-04T00:15:06.846Z,6.90
2023-06-04T00:17:34.159Z,3.90
2023-06-04T00:20:01.568Z,2.60
2023-06-04T00:22:28.933Z,3.10
2023-06-04T00:24:56.193Z,4.10
2023-06-04T00:27:23.472Z,3.40
2023-06-04T00:29:50.808Z,2.80
2023-06-04T00:32:18.170Z,4.10
2023-06-04T00:34:54.813Z,7.40
2023-06-04T00:37:23.453Z,3.70
2023-06-04T00:39:51.409Z,3.40
2023-06-04T00:42:19.224Z,3.20
2023-06-04T00:44:47.093Z,4.30
2023-06-04T00:47:15.367Z,3.90
2023-06-04T00:49:42.999Z,5.00
2023-06-04T00:52:10.778Z,2.60
2023-06-04T00:54:41.310Z,3.70
2023-06-04T00:57:09.833Z,5.50
2023-06-04T00:59:38.471Z,4.90
2023-06-04T01:02:17.408Z,3.70
2023-06-04T01:04:57.424Z,7.80
2023-06-04T01:07:24.718Z,3.70
2023-06-04T01:09:52.239Z,11.50
2023-06-04T01:12:19.499Z,9.50
2023-06-04T01:14:46.863Z,7.70
2023-06-04T01:17:38.295Z,3.80
2023-06-04T01:20:09.805Z,5.10
2023-06-04T01:22:49.740Z,6.10
2023-06-04T01:25:24.710Z,7.50
2023-06-04T01:27:56.870Z,5.70
2023-06-04T01:30:29.492Z,2.50
2023-06-04T01:32:56.949Z,5.30
2023-06-04T01:35:27.367Z,4.10
2023-06-04T01:37:56.891Z,5.70
2023-06-04T01:40:24.839Z,4.90
2023-06-04T01:42:52.234Z,5.30
2023-06-04T01:45:19.570Z,2.90
2023-06-04T01:47:47.043Z,4.60
2023-06-04T01:50:14.400Z,3.40
2023-06-04T01:52:41.798Z,6.10
2023-06-04T01:55:13.307Z,4.00
2023-06-04T01:57:41.710Z,4.80
2023-06-04T02:00:10.440Z,8.20
2023-06-04T02:02:45.153Z,10.10
2023-06-04T02:05:13.120Z,5.00
2023-06-04T02:07:41.572Z,5.50
2023-06-04T02:10:10.163Z,7.00
2023-06-04T02:12:39.767Z,4.40
2023-06-04T02:15:08.437Z,5.60
2023-06-04T02:17:38.741Z,5.90
2023-06-04T02:20:07.661Z,5.50
2023-06-04T02:22:34.973Z,9.30
2023-06-04T02:25:02.378Z,2.80
2023-06-04T02:27:29.675Z,3.70
2023-06-04T02:29:57.177Z,5.10
2023-06-04T02:32:24.480Z,3.50
2023-06-04T02:34:51.757Z,3.90
2023-06-04T02:37:19.159Z,4.80
2023-06-04T02:39:46.461Z,3.30
2023-06-04T02:42:14.299Z,4.60
2023-06-04T02:44:41.707Z,6.30
2023-06-04T02:47:09.303Z,6.00
2023-06-04T02:49:36.667Z,4.20
2023-06-04T02:52:04.110Z,3.40
2023-06-04T02:54:31.674Z,4.30
2023-06-04T02:56:58.959Z,5.20
2023-06-04T02:59:27.003Z,3.40
2023-06-04T03:01:55.334Z,5.90
2023-06-04T03:04:22.840Z,5.20
2023-06-04T03:06:58.290Z,3.30
2023-06-04T03:09:25.695Z,4.40
2023-06-04T03:11:55.040Z,5.00
2023-06-04T03:14:22.656Z,3.40
2023-06-04T03:16:50.183Z,3.30
2023-06-04T03:19:18.249Z,6.40
2023-06-04T03:21:46.141Z,3.50
2023-06-04T03:24:13.493Z,3.50
2023-06-04T03:26:40.803Z,3.20
2023-06-04T03:29:08.143Z,3.80
2023-06-04T03:31:35.790Z,6.40
2023-06-04T03:34:03.269Z,3.50
2023-06-04T03:36:34.080Z,3.90
2023-06-04T03:39:02.833Z,3.30
2023-06-04T03:41:30.773Z,7.00
2023-06-04T03:43:58.609Z,6.40
2023-06-04T03:46:27.792Z,4.20
2023-06-04T03:48:55.955Z,4.60
2023-06-04T03:51:23.942Z,7.00
2023-06-04T03:53:52.207Z,6.10
2023-06-04T03:56:19.560Z,4.30
2023-06-04T03:58:47.277Z,7.00
2023-06-04T04:01:15.404Z,6.80
2023-06-04T04:03:44.180Z,3.90
2023-06-04T04:06:11.870Z,7.60
2023-06-04T04:08:43.362Z,5.50
2023-06-04T04:11:17.043Z,6.40
2023-06-04T04:13:47.901Z,20.20
2023-06-04T04:16:15.732Z,3.60
2023-06-04T04:18:44.668Z,9.10
2023-06-04T04:21:12.293Z,3.40
2023-06-04T04:23:43.359Z,2.30
2023-06-04T04:26:11.406Z,3.80
2023-06-04T04:28:39.418Z,7.60
2023-06-04T04:31:07.913Z,3.80
2023-06-04T04:33:40.630Z,4.60
2023-06-04T04:36:13.781Z,3.50
2023-06-04T04:38:46.025Z,3.80
2023-06-04T04:41:13.882Z,4.00
2023-06-04T04:43:42.274Z,3.30
2023-06-04T04:46:19.898Z,4.90
2023-06-04T04:48:47.211Z,5.00
2023-06-04T04:51:14.833Z,3.60
2023-06-04T04:53:42.136Z,2.70
2023-06-04T04:56:09.546Z,4.00
2023-06-04T04:58:39.673Z,2.70
2023-06-04T05:01:07.444Z,2.30
2023-06-04T05:03:35.458Z,4.10
2023-06-04T05:06:03.111Z,3.70
2023-06-04T05:08:30.470Z,5.50
2023-06-04T05:10:57.864Z,2.90
2023-06-04T05:13:25.628Z,2.80
2023-06-04T05:15:57.968Z,2.80
2023-06-04T05:18:30.169Z,4.50
2023-06-04T05:21:01.058Z,2.00
2023-06-04T05:26:49.365Z,1.90
2023-06-04T05:29:19.529Z,3.40
2023-06-04T05:32:03.182Z,2.50
2023-06-04T05:34:33.699Z,3.50
2023-06-04T05:37:07.539Z,5.70
2023-06-04T05:39:36.768Z,4.50
2023-06-04T05:42:10.046Z,1.90
2023-06-04T05:44:44.798Z,5.20
2023-06-04T05:47:12.453Z,3.60
2023-06-04T05:49:42.693Z,4.40
2023-06-04T05:52:10.844Z,4.00
2023-06-04T05:57:23.315Z,7.40
2023-06-04T05:59:52.984Z,2.40
2023-06-04T06:02:21.823Z,3.30
2023-06-04T06:04:53.719Z,3.20
2023-06-04T06:07:22.019Z,3.60
2023-06-04T06:09:54.492Z,1.70
2023-06-04T06:12:28.691Z,1.30
2023-06-04T06:15:03.778Z,2.60
2023-06-04T06:17:36.658Z,3.70
2023-06-04T06:20:10.851Z,2.60
2023-06-04T06:22:38.785Z,2.30
2023-06-04T06:25:08.273Z,1.80
2023-06-04T06:27:46.685Z,2.50
2023-06-04T06:30:23.324Z,5.30
2023-06-04T06:36:03.060Z,4.90
2023-06-04T06:41:43.083Z,1.10
2023-06-04T06:44:17.256Z,5.90
2023-06-04T06:46:46.517Z,3.50
2023-06-04T06:49:17.574Z,1.40
2023-06-04T06:51:45.253Z,2.60
2023-06-04T06:54:17.268Z,1.20
2023-06-04T06:56:44.551Z,2.30
2023-06-04T06:59:14.750Z,1.90
2023-06-04T07:01:42.809Z,5.10
2023-06-04T07:04:19.667Z,3.20
2023-06-04T07:06:49.887Z,1.70
2023-06-04T07:09:21.032Z,3.10
2023-06-04T07:11:52.675Z,1.10
2023-06-04T07:14:23.116Z,2.00
2023-06-04T07:19:38.214Z,2.30
2023-06-04T07:24:57.716Z,2.10
2023-06-04T07:27:44.835Z,1.10
2023-06-04T07:30:16.863Z,3.60
2023-06-04T07:38:24.758Z,4.20
2023-06-04T07:40:58.335Z,1.10
2023-06-04T07:43:37.102Z,3.00
2023-06-04T07:46:06.000Z,1.60
2023-06-04T07:48:33.455Z,2.40
2023-06-04T07:51:02.769Z,5.10
2023-06-04T07:53:33.266Z,4.10
2023-06-04T07:56:07.118Z,1.30
2023-06-04T07:58:36.249Z,2.70
2023-06-04T08:03:38.872Z,2.90
2023-06-04T08:06:07.401Z,1.50
2023-06-04T08:08:35.390Z,1.40
2023-06-04T08:11:21.125Z,1.80
2023-06-04T08:13:50.709Z,1.50
2023-06-04T08:16:20.463Z,2.80
2023-06-04T08:19:00.167Z,3.20
2023-06-04T08:27:24.611Z,1.90
2023-06-04T08:29:55.014Z,1.10
2023-06-04T08:32:23.728Z,4.00
2023-06-04T08:34:51.452Z,1.70
2023-06-04T08:37:19.055Z,2.40
2023-06-04T08:39:48.436Z,1.50
2023-06-04T08:42:31.758Z,2.70
2023-06-04T08:45:01.487Z,6.70
2023-06-04T08:47:37.638Z,2.10
2023-06-04T08:50:08.527Z,3.80
2023-06-04T08:52:39.901Z,3.30
2023-06-04T08:55:33.239Z,0.80
2023-06-04T08:58:05.198Z,1.10
2023-06-04T09:00:33.296Z,1.20
2023-06-04T09:03:05.213Z,4.00
2023-06-04T09:08:58.019Z,1.70
2023-06-04T09:11:34.774Z,1.50
2023-06-04T09:14:06.985Z,2.20
2023-06-04T09:16:56.334Z,3.80
2023-06-04T09:19:28.961Z,1.70
2023-06-04T09:22:00.240Z,5.20
2023-06-04T09:25:03.133Z,2.60
2023-06-04T09:27:47.083Z,4.20
2023-06-04T09:30:20.371Z,1.30
2023-06-04T09:32:50.196Z,2.20
2023-06-04T09:35:21.705Z,2.50
2023-06-04T09:37:56.474Z,1.60
2023-06-04T09:40:38.365Z,1.60
2023-06-04T09:43:07.285Z,2.40
2023-06-04T09:45:41.745Z,2.40
2023-06-04T09:48:30.423Z,3.10
2023-06-04T09:51:13.930Z,1.00
2023-06-04T09:53:41.245Z,4.20
2023-06-04T09:56:11.657Z,0.90
2023-06-04T09:58:38.966Z,2.80
2023-06-04T10:01:08.286Z,1.20
2023-06-04T10:03:51.455Z,1.70
2023-06-04T10:06:40.312Z,1.50
2023-06-04T10:11:57.890Z,4.10
2023-06-04T10:14:33.494Z,2.60
2023-06-04T10:17:07.869Z,1.10
2023-06-04T10:19:36.918Z,1.30
2023-06-04T10:22:05.599Z,1.70
2023-06-04T10:24:33.968Z,1.50
2023-06-04T10:27:11.680Z,3.60
2023-06-04T10:29:42.720Z,2.80
2023-06-04T10:32:12.098Z,1.30
2023-06-04T10:34:43.284Z,1.10
2023-06-04T10:37:26.902Z,1.50
2023-06-04T10:40:06.672Z,3.40
2023-06-04T10:42:44.235Z,1.80
2023-06-04T10:45:19.622Z,1.80
2023-06-04T10:50:54.436Z,2.80
2023-06-04T10:53:23.573Z,3.30
2023-06-04T10:56:36.694Z,2.00
2023-06-04T10:59:18.289Z,2.30
2023-06-04T11:04:34.914Z,1.60
2023-06-04T11:07:10.313Z,2.60
2023-06-04T11:09:50.131Z,3.30
2023-06-04T11:12:27.586Z,2.00
2023-06-04T11:15:00.971Z,3.90
2023-06-04T11:17:32.548Z,4.20
2023-06-04T11:20:11.449Z,3.40
2023-06-04T11:22:39.235Z,1.50
2023-06-04T11:25:13.292Z,4.00
2023-06-04T11:27:41.403Z,2.40
2023-06-04T11:30:10.495Z,1.90
2023-06-04T11:32:42.465Z,2.50
2023-06-04T11:35:16.874Z,3.70
2023-06-04T11:37:57.058Z,2.90
2023-06-04T11:40:27.223Z,1.00
2023-06-04T11:42:54.749Z,1.20
2023-06-04T11:45:24.840Z,2.10
2023-06-04T11:47:58.664Z,2.60
2023-06-04T11:50:31.521Z,4.90
2023-06-04T11:55:57.153Z,2.90
2023-06-04T12:04:40.049Z,2.20
2023-06-04T12:07:25.575Z,2.30
2023-06-04T12:10:23.659Z,1.40
2023-06-04T12:13:04.224Z,1.20
2023-06-04T12:15:35.313Z,1.60
2023-06-04T12:18:06.538Z,8.40
2023-06-04T12:20:39.825Z,2.10
2023-06-04T12:23:10.135Z,1.80
2023-06-04T12:25:59.839Z,3.50
2023-06-04T12:28:37.095Z,3.00
2023-06-04T12:31:05.361Z,1.50
2023-06-04T12:33:36.363Z,1.80
2023-06-04T12:36:08.303Z,3.40
2023-06-04T12:38:36.343Z,6.90
2023-06-04T12:41:09.545Z,2.10
2023-06-04T12:43:45.038Z,1.90
2023-06-04T12:46:13.972Z,3.90
2023-06-04T12:48:52.503Z,2.40
2023-06-04T12:51:23.369Z,5.00
2023-06-04T12:53:52.395Z,3.00
2023-06-04T12:56:34.293Z,5.00
2023-06-04T13:01:31.956Z,2.50
2023-06-04T13:04:02.969Z,1.40
2023-06-04T13:06:35.382Z,1.20
2023-06-04T13:09:04.530Z,2.80
2023-06-04T13:11:39.012Z,1.70
2023-06-04T13:14:09.848Z,4.20
2023-06-04T13:16:40.948Z,2.50
2023-06-04T13:19:17.606Z,1.50
2023-06-04T13:21:52.868Z,3.30
2023-06-04T13:24:26.558Z,2.40
2023-06-04T13:26:57.125Z,3.30
2023-06-04T13:29:34.416Z,5.40
2023-06-04T13:32:05.770Z,4.10
2023-06-04T13:34:35.790Z,4.90
2023-06-04T13:37:08.129Z,1.80
2023-06-04T13:39:36.560Z,3.30
2023-06-04T13:42:14.725Z,3.10
2023-06-04T13:45:15.629Z,1.50
2023-06-04T13:51:06.148Z,2.40
2023-06-04T13:53:43.336Z,3.30
2023-06-04T13:56:11.841Z,1.40
2023-06-04T13:58:41.414Z,2.70
2023-06-04T14:01:12.279Z,1.80
2023-06-04T14:04:08.443Z,3.50
2023-06-04T14:06:46.245Z,3.10
2023-06-04T14:09:33.711Z,1.80
2023-06-04T14:12:03.180Z,3.90
2023-06-04T14:14:37.621Z,4.50
2023-06-04T14:17:08.338Z,3.20
2023-06-04T14:19:37.340Z,6.20
2023-06-04T14:22:08.016Z,3.00
2023-06-04T14:24:42.033Z,2.60
2023-06-04T14:27:17.389Z,5.30
2023-06-04T14:29:45.526Z,1.60
2023-06-04T14:32:31.491Z,4.10
2023-06-04T14:35:02.114Z,4.30
2023-06-04T14:37:33.981Z,5.40
2023-06-04T14:40:19.434Z,2.20
2023-06-04T14:42:58.897Z,3.70
2023-06-04T14:48:16.786Z,3.50
2023-06-04T14:53:41.501Z,3.20
2023-06-04T14:56:11.571Z,2.30
2023-06-04T14:58:40.629Z,4.00
2023-06-04T15:01:11.435Z,2.40
2023-06-04T15:07:06.945Z,1.80
2023-06-04T15:09:41.791Z,3.30
2023-06-04T15:12:15.692Z,3.40
2023-06-04T15:14:48.242Z,2.90
2023-06-04T15:17:19.174Z,2.50
2023-06-04T15:28:50.778Z,3.80
2023-06-04T15:33:48.134Z,3.60
2023-06-04T15:36:16.966Z,7.80
2023-06-04T15:38:46.922Z,5.50
2023-06-04T15:41:25.881Z,3.60
2023-06-04T15:43:53.953Z,2.00
2023-06-04T15:46:26.085Z,2.40
2023-06-04T15:49:13.204Z,5.70
2023-06-04T15:51:49.076Z,4.90
2023-06-04T15:54:26.960Z,2.20
2023-06-04T15:57:02.990Z,4.00
2023-06-04T15:59:43.572Z,2.30
2023-06-04T16:02:16.274Z,2.40
2023-06-04T16:04:52.339Z,8.50
2023-06-04T16:07:20.854Z,6.40
2023-06-04T16:09:50.094Z,6.50
2023-06-04T16:12:42.173Z,4.00
2023-06-04T16:15:12.902Z,3.60
2023-06-04T16:17:48.239Z,2.60
2023-06-04T16:20:19.318Z,2.60
2023-06-04T16:22:54.288Z,4.60
2023-06-04T16:25:32.011Z,3.40
2023-06-04T16:28:00.820Z,2.70
2023-06-04T16:36:29.935Z,3.90
2023-06-04T16:42:20.135Z,5.20
2023-06-04T16:44:54.071Z,6.40
2023-06-04T16:50:18.498Z,2.00
2023-06-04T16:52:49.650Z,5.30
2023-06-04T16:55:19.794Z,2.70
2023-06-04T16:57:50.965Z,5.30
2023-06-04T17:00:27.186Z,5.70
2023-06-04T17:03:05.857Z,7.30
2023-06-04T17:11:43.106Z,7.10
2023-06-04T17:14:23.209Z,8.30
2023-06-04T17:17:00.451Z,4.10
2023-06-04T17:19:52.228Z,3.20
2023-06-04T17:22:25.368Z,3.10
2023-06-04T17:24:53.638Z,5.70
2023-06-04T17:27:22.364Z,3.10
2023-06-04T17:30:00.334Z,2.60
2023-06-04T17:32:31.164Z,3.10
2023-06-04T17:35:04.272Z,2.90
2023-06-04T17:37:49.641Z,3.80
2023-06-04T17:43:10.755Z,6.60
2023-06-04T17:45:38.018Z,4.80
2023-06-04T17:48:06.553Z,10.20
2023-06-04T17:50:33.881Z,20.20
2023-06-04T17:53:01.204Z,12.80
2023-06-04T17:55:28.470Z,6.60
2023-06-04T17:57:56.829Z,16.70
2023-06-04T18:00:24.185Z,26.80
2023-06-04T18:02:51.494Z,7.60
2023-06-04T18:05:20.971Z,8.90
2023-06-04T18:07:48.308Z,15.80
2023-06-04T18:10:15.645Z,16.90
2023-06-04T18:12:46.845Z,20.70
2023-06-04T18:15:17.101Z,9.10
2023-06-04T18:17:44.457Z,11.30
2023-06-04T18:20:11.960Z,12.40
2023-06-04T18:22:39.409Z,6.70
2023-06-04T18:25:08.997Z,11.50
2023-06-04T18:27:37.179Z,10.70
2023-06-04T18:30:05.230Z,9.00
2023-06-04T18:32:32.620Z,12.90
2023-06-04T18:34:59.982Z,9.80
2023-06-04T18:37:27.282Z,8.10
2023-06-04T18:39:55.164Z,7.80
2023-06-04T18:44:57.430Z,7.40
2023-06-04T18:47:24.887Z,13.90
2023-06-04T18:49:52.310Z,12.40
2023-06-04T18:52:19.659Z,14.80
2023-06-04T18:54:46.958Z,8.20
2023-06-04T18:57:17.196Z,5.90
2023-06-04T18:59:44.519Z,9.00
2023-06-04T19:02:12.039Z,8.90
2023-06-04T19:04:40.101Z,5.80
2023-06-04T19:07:07.558Z,5.60
2023-06-04T19:09:35.995Z,4.20
2023-06-04T19:12:03.653Z,5.40
2023-06-04T19:14:31.255Z,5.50
2023-06-04T19:17:01.604Z,7.70
2023-06-04T19:19:28.965Z,10.80
2023-06-04T19:21:56.303Z,9.30
2023-06-04T19:24:23.660Z,15.90
2023-06-04T19:26:51.981Z,6.40
2023-06-04T19:29:19.982Z,5.10
2023-06-04T19:31:47.814Z,4.80
2023-06-04T19:34:15.419Z,5.00
2023-06-04T19:36:42.697Z,5.20
2023-06-04T19:39:10.033Z,6.40
2023-06-04T19:41:37.355Z,5.20
2023-06-04T19:44:04.710Z,8.50
2023-06-04T19:46:32.136Z,8.40
2023-06-04T19:49:00.112Z,9.00
2023-06-04T19:51:30.366Z,5.60
2023-06-04T19:53:57.788Z,9.70
2023-06-04T19:56:25.202Z,12.20
2023-06-04T19:58:52.654Z,11.70
2023-06-04T20:01:20.065Z,6.80
2023-06-04T20:03:47.845Z,4.20
2023-06-04T20:06:15.228Z,7.30
2023-06-04T20:08:42.669Z,13.30
2023-06-04T20:11:10.720Z,8.70
2023-06-04T20:13:38.263Z,33.30
2023-06-04T20:16:05.632Z,20.20
2023-06-04T20:18:34.246Z,22.20
2023-06-04T20:21:01.693Z,15.10
2023-06-04T20:23:29.151Z,10.80
2023-06-04T20:26:00.070Z,9.10
2023-06-04T20:28:30.033Z,6.40
2023-06-04T20:30:57.489Z,6.80
2023-06-04T20:33:26.712Z,6.60
2023-06-04T20:35:54.032Z,4.90
2023-06-04T20:38:21.619Z,5.90
2023-06-04T20:40:49.010Z,6.60
2023-06-04T20:43:16.958Z,7.30
2023-06-04T20:45:44.403Z,3.80
2023-06-04T20:48:12.078Z,10.80
2023-06-04T20:50:39.475Z,5.30
2023-06-04T20:53:06.817Z,9.90
2023-06-04T20:55:36.207Z,11.60
2023-06-04T20:58:03.680Z,6.10
2023-06-04T21:00:31.892Z,6.10
2023-06-04T21:02:59.273Z,6.90
2023-06-04T21:05:26.596Z,7.20
2023-06-04T21:07:53.900Z,7.50
2023-06-04T21:10:21.260Z,6.30
2023-06-04T21:12:48.615Z,9.30
2023-06-04T21:15:16.365Z,5.40
2023-06-04T21:17:43.714Z,5.90
2023-06-04T21:20:11.388Z,7.30
2023-06-04T21:22:38.699Z,6.80
2023-06-04T21:25:06.533Z,5.00
2023-06-04T21:27:33.849Z,7.20
2023-06-04T21:30:01.166Z,8.50
2023-06-04T21:32:28.558Z,5.70
2023-06-04T21:34:55.909Z,9.10
2023-06-04T21:37:23.208Z,7.80
2023-06-04T21:39:50.488Z,6.40
2023-06-04T21:42:17.787Z,8.40
2023-06-04T21:44:45.739Z,8.40
2023-06-04T21:47:13.683Z,6.30
2023-06-04T21:49:41.072Z,6.40
2023-06-04T21:52:17.651Z,6.60
2023-06-04T21:54:52.221Z,6.80
2023-06-04T21:57:19.754Z,7.90
2023-06-04T21:59:47.072Z,6.80
2023-06-04T22:02:14.427Z,6.00
2023-06-04T22:04:41.784Z,9.90
2023-06-04T22:07:09.196Z,7.80
2023-06-04T22:09:36.513Z,10.10
2023-06-04T22:12:03.952Z,8.20
2023-06-04T22:14:31.250Z,6.50
2023-06-04T22:16:58.584Z,9.60
2023-06-04T22:19:25.891Z,6.70
2023-06-04T22:21:53.263Z,6.40
2023-06-04T22:24:20.680Z,7.40
2023-06-04T22:26:48.289Z,10.40
2023-06-04T22:29:17.858Z,5.20
2023-06-04T22:31:45.719Z,7.40
2023-06-04T22:34:13.129Z,6.40
2023-06-04T22:36:41.768Z,6.90
2023-06-04T22:39:09.117Z,5.80
2023-06-04T22:41:36.432Z,7.40
2023-06-04T22:44:04.087Z,6.60
2023-06-04T22:46:32.055Z,11.50
2023-06-04T22:48:59.424Z,8.10
2023-06-04T22:51:27.304Z,6.80
2023-06-04T22:53:56.230Z,5.80
2023-06-04T22:56:23.757Z,8.20
2023-06-04T22:58:51.529Z,7.30
2023-06-04T23:01:19.909Z,5.50
2023-06-04T23:03:47.273Z,6.20
2023-06-04T23:06:14.817Z,4.20
2023-06-04T23:08:44.803Z,5.50
2023-06-04T23:11:14.493Z,6.60
2023-06-04T23:13:42.478Z,8.40
2023-06-04T23:16:10.019Z,5.90
2023-06-04T23:18:37.476Z,5.90
2023-06-04T23:21:07.278Z,9.20
2023-06-04T23:23:34.968Z,4.20
2023-06-04T23:26:02.235Z,7.90
2023-06-04T23:28:30.603Z,10.10
2023-06-04T23:30:57.881Z,4.40
2023-06-04T23:33:25.166Z,5.60
2023-06-04T23:35:52.632Z,4.80
2023-06-04T23:38:19.914Z,7.40
2023-06-04T23:40:47.200Z,6.80
2023-06-04T23:43:15.841Z,10.50
2023-06-04T23:45:43.179Z,6.90
2023-06-04T23:48:11.178Z,6.00
2023-06-04T23:50:38.512Z,4.50
2023-06-04T23:53:05.892Z,6.40
2023-06-04T23:55:33.174Z,7.30
2023-06-04T23:58:01.601Z,8.00
